Latest Coastal Weather Observations for Smithton

IDV60701

Issued at 2:31 am EDT Friday 22 November 2019 (issued every 10 minutes, with the page automatically refreshed every 10 minutes)

About coastal observations | Map of coastal stations | Coastal observations for VIC | Marine services | Other Formats
Station Details ID: 091292 Name: SMITHTON AERODROME Lat: -40.83 Lon: 145.08 Height: 7.5 m
Data from the previous 72 hours. | See also: Recent months at Smithton
Date/Time
EDT
Wind Sea
Height
m
Swell Vis
km
Cloud Weather Temp
°C
Press
hPa
Rain since
9am
mm
Dir  Spd
kts
Gust
kts
Height
m
Period
s
Dir
22/02:30am WSW 9 13 - - - - - - - 11.3 1012.1 0.0
22/02:00am WSW 10 13 - - - - - - - 11.2 1011.6 0.0
22/01:30am WSW 11 15 - - - - - - - 11.6 1011.2 0.0
22/01:00am SW 12 18 - - - - - - - 11.6 1010.9 0.0
22/12:30am SW 14 18 - - - - - - - 11.5 1010.5 0.0
22/12:00am WSW 13 17 - - - - - - - 11.8 1010.4 0.0
 
Date/Time
EDT
Wind Sea
Height
m
Swell Vis
km
Cloud Weather Temp
°C
Press
hPa
Rain since
9am
mm
Dir  Spd
kts
Gust
kts
Height
m
Period
s
Dir
21/11:30pm WSW 11 16 - - - - - - - 11.9 1010.3 0.0
21/11:00pm SW 13 17 - - - - - - - 11.8 1010.1 0.0
21/10:30pm SW 15 26 - - - - - - - 12.0 1009.8 0.0
21/10:28pm WSW 15 26 - - - - - - - 12.1 1009.8 0.0
21/10:00pm SW 14 21 - - - - - - - 12.3 1009.2 0.0
21/09:30pm SW 15 22 - - - - - - - 12.8 1008.5 0.0
21/09:01pm SW 17 27 - - - - - - - 12.6 1007.4 0.0
21/09:00pm SW 17 23 - - - - - - - 12.5 1007.5 0.0
21/08:30pm SW 18 25 - - - - - - - 12.6 1006.6 0.0
21/08:00pm SW 22 29 - - - - - - - 13.6 1005.8 0.0
21/07:47pm SW 19 31 - - - - - - - 14.3 1005.5 0.0
21/07:30pm SW 14 19 - - - - - - - 14.8 1005.8 0.0
21/07:00pm SW 19 23 - - - - - - - 14.3 1004.8 0.0
21/06:30pm SW 20 27 - - - - - - - 13.6 1004.3 0.0
21/06:00pm SW 23 33 - - - - - - - 13.3 1003.9 0.0
21/05:57pm SW 20 31 - - - - - - - 13.2 1003.7 0.0
21/05:46pm SW 27 35 - - - - - - - 13.2 1003.6 0.0
21/05:38pm SW 27 38 - - - - - - - 13.4 1002.6 0.0
21/05:31pm SW 21 32 - - - - - - - 14.0 1002.9 0.0
21/05:30pm SW 20 28 - - - - - - - 14.2 1002.9 0.0
21/05:00pm SW 23 35 - - - - - - - 14.5 1001.2 0.0
21/04:49pm SW 21 32 - - - - - - - 14.8 1001.9 0.0
21/04:46pm SW 21 27 - - - - - - - 15.1 1001.8 0.0
21/04:30pm SW 20 26 - - - - - - - 15.1 999.6 0.0
21/04:20pm SW 21 33 - - - - - - - 15.4 999.2 0.0
21/04:00pm WSW 21 27 - - - - - - - 17.9 998.9 0.0
21/03:46pm W 17 24 - - - - - - - 18.9 998.2 0.0
21/03:30pm W 15 19 - - - - - - - 22.9 996.8 0.0
21/03:00pm W 9 16 - - - - - - - 26.6 996.7 0.0
21/02:30pm NNW 5 7 - - - - - - - 25.1 996.9 0.0
21/02:00pm NW 5 7 - - - - - - - 23.5 997.5 0.0
21/01:30pm NNW 8 10 - - - - - - - 22.3 997.5 0.0
21/01:00pm NNW 7 9 - - - - - - - 22.8 997.2 0.0
21/12:30pm NNW 8 12 - - - - - - - 23.3 997.1 0.0
21/12:00pm NNW 13 21 - - - - - - - 24.4 997.9 0.0
21/11:30am NNW 10 14 - - - - - - - 25.5 998.2 0.0
21/11:00am NE 4 9 - - - - - - - 24.6 998.0 0.0
21/10:30am E 9 11 - - - - - - - 22.9 998.5 0.0
21/10:00am ENE 12 16 - - - - - - - 21.5 999.0 0.0
21/09:30am ENE 13 18 - - - - - - - 20.9 999.6 0.0
21/09:00am ENE 12 16 - - - - - - - 21.2 999.9 0.0
21/08:30am ENE 14 19 - - - - - - - 20.3 999.5 0.0
21/08:00am ENE 15 20 - - - - - - - 19.4 999.5 0.0
21/07:30am ENE 13 17 - - - - - - - 18.9 999.9 0.0
21/07:00am ENE 15 21 - - - - - - - 18.1 999.6 0.0
21/06:30am ENE 19 27 - - - - - - - 17.6 999.1 0.0
21/06:00am ENE 16 22 - - - - - - - 16.8 999.5 0.0
21/05:30am ENE 17 22 - - - - - - - 17.2 999.5 0.0
21/05:00am ENE 16 22 - - - - - - - 17.3 999.6 0.0
21/04:30am ENE 19 24 - - - - - - - 17.0 1000.0 0.0
21/04:00am E 19 26 - - - - - - - 16.8 1000.6 0.0
21/03:30am E 20 27 - - - - - - - 16.4 1000.8 0.0
21/03:05am ENE 19 29 - - - - - - - 16.2 1001.4 0.0
21/03:00am ENE 21 29 - - - - - - - 16.1 1001.3 0.0
21/02:45am E 21 33 - - - - - - - 16.5 1001.0 0.0
21/02:30am ENE 19 26 - - - - - - - 16.2 1001.7 0.0
21/02:00am ENE 20 30 - - - - - - - 15.4 1002.3 0.0
21/01:31am E 22 32 - - - - - - - 15.2 1002.9 0.0
21/01:30am E 22 30 - - - - - - - 15.1 1002.9 0.0
21/01:00am E 18 27 - - - - - - - 14.4 1003.7 0.0
21/12:40am E 18 28 - - - - - - - 14.4 1004.7 0.0
21/12:30am E 18 25 - - - - - - - 14.3 1004.9 0.0
21/12:00am ENE 18 27 - - - - - - - 14.2 1005.7 0.0
 
Date/Time
EDT
Wind Sea
Height
m
Swell Vis
km
Cloud Weather Temp
°C
Press
hPa
Rain since
9am
mm
Dir  Spd
kts
Gust
kts
Height
m
Period
s
Dir
20/11:30pm ENE 20 30 - - - - - - - 13.9 1006.2 0.0
20/11:25pm ENE 20 30 - - - - - - - 13.9 1006.3 0.0
20/11:00pm ENE 22 30 - - - - - - - 13.9 1006.1 0.0
20/10:34pm ENE 20 30 - - - - - - - 13.7 1007.1 0.0
20/10:30pm ENE 21 28 - - - - - - - 13.8 1007.1 0.0
20/10:14pm ENE 22 33 - - - - - - - 13.9 1007.3 0.0
20/10:00pm ENE 20 28 - - - - - - - 13.6 1007.4 0.0
20/09:39pm E 18 28 - - - - - - - 13.1 1007.6 0.0
20/09:30pm ENE 19 24 - - - - - - - 12.9 1007.5 0.0
20/09:00pm E 22 29 - - - - - - - 12.7 1008.0 0.0
20/08:52pm E 18 28 - - - - - - - 12.8 1008.1 0.0
20/08:30pm ENE 17 25 - - - - - - - 12.6 1008.5 0.0
20/08:00pm ENE 21 28 - - - - - - - 12.7 1008.4 0.0
20/07:30pm ENE 19 26 - - - - - - - 12.9 1008.7 0.0
20/07:00pm ENE 21 29 - - - - - - - 13.2 1008.7 0.0
20/06:41pm ENE 20 30 - - - - - - - 13.2 1008.9 0.0
20/06:30pm ENE 22 29 - - - - - - - 13.4 1009.1 0.0
20/06:14pm ENE 20 31 - - - - - - - 13.6 1009.2 0.0
20/06:00pm ENE 19 26 - - - - - - - 13.8 1009.3 0.0
20/05:30pm ENE 24 31 - - - - - - - 14.4 1009.8 0.0
20/05:23pm ENE 21 31 - - - - - - - 14.5 1009.8 0.0
20/05:00pm ENE 19 25 - - - - - - - 15.3 1010.0 0.0
20/04:30pm ENE 21 28 - - - - - - - 15.3 1010.4 0.0
20/04:00pm ENE 20 28 - - - - - - - 15.6 1010.9 0.0
20/03:30pm ENE 18 25 - - - - - - - 16.8 1011.5 0.0
20/03:00pm ENE 18 23 - - - - - - - 16.0 1012.1 0.0
20/02:30pm ENE 19 23 - - - - - - - 15.2 1012.6 0.0
20/02:00pm NE 17 23 - - - - - - - 13.9 1012.8 0.0
20/01:30pm NE 16 21 - - - - - - - 13.9 1013.3 0.0
20/01:00pm ENE 16 21 - - - - - - - 15.1 1013.8 0.0
20/12:30pm ENE 14 19 - - - - - - - 14.0 1013.5 0.0
20/12:00pm NE 15 20 - - - - - - - 14.4 1013.9 0.0
20/11:30am NE 11 16 - - - - - - - 13.7 1014.9 0.0
20/11:00am NE 13 16 - - - - - - - 13.3 1015.2 0.0
20/10:30am NNE 13 18 - - - - - - - 13.4 1015.4 0.0
20/10:00am NNE 14 19 - - - - - - - 12.5 1015.1 0.0
20/09:30am NNE 13 17 - - - - - - - 13.8 1014.7 0.0
20/09:00am NE 12 15 - - - - - - - 13.2 1015.1 0.2
20/08:30am NNE 12 16 - - - - - - - 13.6 1015.0 0.2
20/08:00am NE 11 15 - - - - - - - 13.0 1015.1 0.2
20/07:30am NE 11 14 - - - - - - - 12.6 1015.0 0.2
20/07:00am NE 10 13 - - - - - - - 11.6 1014.8 0.2
20/06:30am NE 11 14 - - - - - - - 11.4 1014.4 0.2
20/06:00am ENE 9 13 - - - - - - - 10.5 1014.4 0.2
20/05:30am ENE 8 12 - - - - - - - 9.7 1014.3 0.2
20/05:24am ENE 6 12 - - - - - - - 8.6 1014.3 0.2
20/05:00am SSE 3 6 - - - - - - - 3.6 1013.4 0.2
20/04:30am S 5 6 - - - - - - - 4.6 1013.3 0.2
20/04:00am SSE 5 7 - - - - - - - 4.7 1013.6 0.2
20/03:30am S 6 7 - - - - - - - 4.1 1014.4 0.2
20/03:00am S 7 8 - - - - - - - 3.8 1014.1 0.2
20/02:30am SSW 5 8 - - - - - - - 2.9 1014.4 0.2
20/02:00am SSE 1 4 - - - - - - - 4.4 1014.7 0.2
20/01:30am SSW 6 8 - - - - - - - 4.3 1015.0 0.2
20/01:00am SSW 7 8 - - - - - - - 4.6 1015.2 0.2
20/12:30am SSW 8 9 - - - - - - - 5.2 1015.3 0.2
20/12:00am SSW 4 5 - - - - - - - 6.3 1015.6 0.2
 
Date/Time
EDT
Wind Sea
Height
m
Swell Vis
km
Cloud Weather Temp
°C
Press
hPa
Rain since
9am
mm
Dir  Spd
kts
Gust
kts
Height
m
Period
s
Dir
19/11:30pm SW 8 11 - - - - - - - 6.7 1015.6 0.2
19/11:00pm WSW 7 8 - - - - - - - 6.4 1015.8 0.2
19/10:30pm SW 7 9 - - - - - - - 6.9 1015.5 0.2
19/10:00pm SW 7 8 - - - - - - - 7.9 1015.6 0.2
19/09:30pm SW 8 11 - - - - - - - 8.7 1015.5 0.2
19/09:00pm SW 10 13 - - - - - - - 9.6 1015.2 0.2
19/08:30pm SW 11 13 - - - - - - - 10.5 1014.8 0.2
19/08:00pm SW 13 16 - - - - - - - 11.9 1014.5 0.2
19/07:30pm SSW 13 17 - - - - - - - 12.9 1014.2 0.2
19/07:00pm SW 13 18 - - - - - - - 14.2 1014.1 0.2
19/06:30pm SW 17 22 - - - - - - - 14.9 1013.8 0.2
19/06:00pm SW 15 19 - - - - - - - 15.5 1013.5 0.2
19/05:30pm SSW 17 23 - - - - - - - 15.9 1013.4 0.2
19/05:00pm SW 17 21 - - - - - - - 16.9 1013.1 0.2
19/04:30pm SW 16 22 - - - - - - - 17.2 1013.3 0.2
19/04:00pm SW 15 21 - - - - - - - 17.3 1012.9 0.2
19/03:30pm SW 16 21 - - - - - - - 17.7 1013.1 0.2
19/03:00pm SW 13 19 - - - - - - - 17.3 1012.9 0.2
19/02:30pm SW 15 20 - - - - - - - 17.5 1013.0 0.2
19/02:00pm SW 15 21 - - - - - - - 17.9 1012.8 0.2
19/01:30pm SW 15 20 - - - - - - - 17.4 1012.8 0.2
19/01:00pm SSW 13 18 - - - - - - - 18.0 1012.8 0.2
19/12:30pm SSW 15 21 - - - - - - - 16.8 1012.8 0.2
19/12:00pm SSW 15 20 - - - - - - Recent precip. 16.4 1012.9 0.2
19/11:30am SSW 14 19 - - - - - - - 15.4 1012.8 0.0
19/11:00am SSW 15 19 - - - - - - - 14.9 1012.8 0.0
19/10:30am SW 16 21 - - - - - - - 14.3 1012.7 0.0
19/10:00am SSW 14 21 - - - - - - - 13.7 1012.7 0.0
19/09:30am SSW 14 19 - - - - - - - 13.2 1012.8 0.0
19/09:00am SSW 15 20 - - - - - - - 13.0 1012.5 0.2
19/08:30am SSW 15 20 - - - - - - - 12.0 1012.1 0.2
19/08:00am SW 13 19 - - - - - - - 11.5 1011.9 0.2
19/07:30am SW 13 18 - - - - - - - 10.7 1011.6 0.2
19/07:00am SSW 11 14 - - - - - - - 10.3 1011.2 0.2
19/06:30am SW 11 15 - - - - - - - 10.2 1011.2 0.2
19/06:00am SW 9 12 - - - - - - - 9.9 1010.6 0.2
19/05:30am WSW 9 11 - - - - - - - 10.0 1010.2 0.2
19/05:00am WSW 10 13 - - - - - - - 10.4 1009.8 0.2
19/04:30am SW 13 19 - - - - - - - 10.5 1009.6 0.2
19/04:00am SW 11 15 - - - - - - - 10.7 1009.4 0.2
19/03:30am SW 13 17 - - - - - - - 10.7 1009.3 0.2
19/03:00am SW 11 14 - - - - - - - 11.1 1009.1 0.2

Other formats

Comma delimited format used in spreadsheet applications
http://www.bom.gov.au/fwo/IDV60701/IDV60701.94953.axf

JavaScript Object Notation format (JSON) in row-major order
http://www.bom.gov.au/fwo/IDV60701/IDV60701.94953.json

Data quality

Most of these data are generated automatically and are frequently updated. Quality checks on data are not normally performed. It is possible for incorrect values to appear. Refer to information at About Latest Weather Observations and please check the disclaimer before using these data.